createdAt,value
2018-08-20T00:01:55.260Z,56.00
2018-08-20T00:04:24.083Z,56.10
2018-08-20T00:06:56.593Z,56.20
2018-08-20T00:09:33.448Z,56.20
2018-08-20T00:12:02.435Z,56.20
2018-08-20T00:14:31.571Z,56.30
2018-08-20T00:17:00.731Z,56.30
2018-08-20T00:19:29.397Z,56.40
2018-08-20T00:21:58.040Z,56.50
2018-08-20T00:24:26.868Z,56.60
2018-08-20T00:26:57.624Z,56.90
2018-08-20T00:29:26.602Z,56.90
2018-08-20T00:31:55.292Z,56.90
2018-08-20T00:34:23.937Z,57.00
2018-08-20T00:36:52.724Z,57.00
2018-08-20T00:39:21.674Z,57.00
2018-08-20T00:41:50.289Z,57.00
2018-08-20T00:44:19.116Z,57.20
2018-08-20T00:46:47.773Z,57.40
2018-08-20T00:49:17.190Z,57.40
2018-08-20T00:51:46.952Z,57.30
2018-08-20T00:54:15.738Z,57.30
2018-08-20T00:56:44.410Z,57.30
2018-08-20T00:59:13.140Z,57.40
2018-08-20T01:01:42.029Z,57.40
2018-08-20T01:04:10.708Z,57.20
2018-08-20T01:06:40.271Z,57.20
2018-08-20T01:09:10.093Z,57.10
2018-08-20T01:11:39.536Z,57.00
2018-08-20T01:14:08.491Z,57.00
2018-08-20T01:16:37.354Z,57.20
2018-08-20T01:19:06.024Z,57.30
2018-08-20T01:21:34.877Z,57.30
2018-08-20T01:24:03.840Z,57.30
2018-08-20T01:26:32.811Z,57.40
2018-08-20T01:29:01.897Z,57.30
2018-08-20T01:31:30.487Z,57.20
2018-08-20T01:33:59.318Z,57.20
2018-08-20T01:36:28.343Z,57.30
2018-08-20T01:38:56.927Z,57.30
2018-08-20T01:41:25.620Z,57.50
2018-08-20T01:43:54.238Z,57.80
2018-08-20T01:46:23.387Z,57.80
2018-08-20T01:48:52.513Z,57.90
2018-08-20T01:51:21.324Z,58.00
2018-08-20T01:53:50.264Z,58.10
2018-08-20T01:56:19.196Z,58.00
2018-08-20T01:58:48.134Z,57.90
2018-08-20T02:01:16.763Z,57.90
2018-08-20T02:03:45.677Z,57.70
2018-08-20T02:06:14.451Z,57.40
2018-08-20T02:08:43.584Z,57.40
2018-08-20T02:11:12.666Z,57.50
2018-08-20T02:13:41.375Z,57.60
2018-08-20T02:16:10.454Z,57.70
2018-08-20T02:18:39.096Z,57.70
2018-08-20T02:21:09.729Z,57.90
2018-08-20T02:23:39.128Z,58.00
2018-08-20T02:26:08.168Z,58.20
2018-08-20T02:28:37.019Z,58.30
2018-08-20T02:31:05.692Z,58.20
2018-08-20T02:33:34.425Z,58.60
2018-08-20T02:36:03.008Z,58.50
2018-08-20T02:38:32.300Z,58.40
2018-08-20T02:41:01.276Z,58.40
2018-08-20T02:43:30.314Z,58.50
2018-08-20T02:45:58.996Z,58.40
2018-08-20T02:48:29.207Z,58.10
2018-08-20T02:50:58.160Z,58.30
2018-08-20T02:53:26.797Z,58.40
2018-08-20T02:55:55.700Z,58.40
2018-08-20T02:58:24.269Z,57.80
2018-08-20T03:00:53.838Z,57.70
2018-08-20T03:03:23.081Z,57.50
2018-08-20T03:05:52.082Z,57.50
2018-08-20T03:08:21.221Z,57.80
2018-08-20T03:10:49.896Z,57.30
2018-08-20T03:13:24.987Z,57.50
2018-08-20T03:15:53.618Z,57.10
2018-08-20T03:18:22.520Z,57.30
2018-08-20T03:20:52.079Z,57.60
2018-08-20T03:23:22.232Z,57.40
2018-08-20T03:25:53.535Z,57.40
2018-08-20T03:28:22.297Z,57.20
2018-08-20T03:30:50.984Z,57.10
2018-08-20T03:33:19.967Z,57.30
2018-08-20T03:35:49.430Z,57.50
2018-08-20T03:38:18.296Z,57.60
2018-08-20T03:40:47.229Z,57.70
2018-08-20T03:43:16.096Z,58.50
2018-08-20T03:45:44.994Z,58.10
2018-08-20T03:48:13.654Z,57.90
2018-08-20T03:50:42.403Z,57.90
2018-08-20T03:53:11.184Z,57.80
2018-08-20T03:55:40.364Z,57.90
2018-08-20T03:58:09.617Z,57.80
2018-08-20T04:00:38.377Z,57.90
2018-08-20T04:03:07.194Z,58.10
2018-08-20T04:05:36.306Z,58.30
2018-08-20T04:08:05.083Z,58.30
2018-08-20T04:10:33.800Z,58.20
2018-08-20T04:13:02.792Z,58.30
2018-08-20T04:15:31.414Z,58.30
2018-08-20T04:18:00.012Z,58.50
2018-08-20T04:20:28.659Z,58.30
2018-08-20T04:22:57.306Z,58.30
2018-08-20T04:25:25.959Z,58.30
2018-08-20T04:27:54.679Z,58.30
2018-08-20T04:30:24.740Z,58.20
2018-08-20T04:32:53.616Z,58.30
2018-08-20T04:35:22.203Z,58.10
2018-08-20T04:37:50.875Z,58.00
2018-08-20T04:40:19.567Z,58.20
2018-08-20T04:42:48.330Z,58.30
2018-08-20T04:45:17.016Z,58.30
2018-08-20T04:47:46.091Z,58.50
2018-08-20T04:50:15.738Z,58.90
2018-08-20T04:52:44.203Z,59.20
2018-08-20T04:55:12.831Z,59.10
2018-08-20T04:57:41.573Z,59.30
2018-08-20T05:00:11.518Z,59.60
2018-08-20T05:02:40.425Z,59.80
2018-08-20T05:05:09.709Z,59.90
2018-08-20T05:07:38.684Z,60.20
2018-08-20T05:10:07.977Z,60.20
2018-08-20T05:12:37.142Z,60.10
2018-08-20T05:15:05.909Z,60.30
2018-08-20T05:17:34.662Z,60.00
2018-08-20T05:20:03.402Z,60.10
2018-08-20T05:22:32.067Z,60.10
2018-08-20T05:25:00.877Z,60.10
2018-08-20T05:27:29.615Z,59.90
2018-08-20T05:29:58.328Z,60.10
2018-08-20T05:32:27.395Z,59.90
2018-08-20T05:34:56.063Z,60.00
2018-08-20T05:37:24.685Z,60.30
2018-08-20T05:39:53.543Z,60.10
2018-08-20T05:42:22.252Z,60.20
2018-08-20T05:44:51.290Z,60.10
2018-08-20T05:47:19.905Z,59.80
2018-08-20T05:49:49.627Z,59.60
2018-08-20T05:52:18.201Z,59.60
2018-08-20T05:54:47.206Z,59.30
2018-08-20T05:57:15.979Z,59.00
2018-08-20T05:59:45.288Z,58.90
2018-08-20T06:02:13.967Z,58.40
2018-08-20T06:04:42.571Z,58.50
2018-08-20T06:07:11.477Z,58.50
2018-08-20T06:09:40.347Z,58.60
2018-08-20T06:12:08.943Z,58.10
2018-08-20T06:14:37.736Z,57.90
2018-08-20T06:17:06.675Z,57.70
2018-08-20T06:19:35.243Z,57.50
2018-08-20T06:22:05.323Z,57.50
2018-08-20T06:24:34.091Z,57.30
2018-08-20T06:27:02.778Z,57.00
2018-08-20T06:29:31.447Z,57.20
2018-08-20T06:32:00.048Z,56.90
2018-08-20T06:34:28.699Z,56.70
2018-08-20T06:36:57.709Z,56.70
2018-08-20T06:39:26.396Z,56.60
2018-08-20T06:41:55.077Z,56.40
2018-08-20T06:44:23.783Z,56.40
2018-08-20T06:46:52.337Z,56.50
2018-08-20T06:49:20.947Z,56.30
2018-08-20T06:51:49.950Z,55.80
2018-08-20T06:54:18.644Z,55.30
2018-08-20T06:56:47.684Z,55.40
2018-08-20T06:59:16.344Z,55.50
2018-08-20T07:01:45.243Z,55.30
2018-08-20T07:04:13.938Z,55.00
2018-08-20T07:06:42.688Z,55.00
2018-08-20T07:09:11.323Z,54.60
2018-08-20T07:11:40.017Z,53.90
2018-08-20T07:14:08.837Z,53.80
2018-08-20T07:16:37.695Z,53.60
2018-08-20T07:19:06.572Z,53.20
2018-08-20T07:21:35.294Z,52.90
2018-08-20T07:24:04.246Z,52.30
2018-08-20T07:26:33.042Z,51.70
2018-08-20T07:29:01.762Z,51.30
2018-08-20T07:31:30.463Z,51.00
2018-08-20T07:33:59.265Z,50.30
2018-08-20T07:36:27.925Z,50.20
2018-08-20T07:38:56.701Z,50.10
2018-08-20T07:41:25.719Z,49.70
2018-08-20T07:43:54.653Z,49.90
2018-08-20T07:46:23.506Z,49.40
2018-08-20T07:48:52.840Z,49.20
2018-08-20T07:51:21.486Z,49.10
2018-08-20T07:53:50.095Z,49.10
2018-08-20T07:56:19.993Z,49.20
2018-08-20T07:58:48.795Z,49.10
2018-08-20T08:01:17.468Z,49.00
2018-08-20T08:03:47.082Z,48.70
2018-08-20T08:06:16.027Z,48.70
2018-08-20T08:08:44.873Z,48.80
2018-08-20T08:11:13.752Z,48.50
2018-08-20T08:13:42.387Z,48.70
2018-08-20T08:16:11.148Z,48.80
2018-08-20T08:18:39.916Z,48.70
2018-08-20T08:21:08.853Z,48.30
2018-08-20T08:23:37.896Z,48.30
2018-08-20T08:26:06.952Z,48.20
2018-08-20T08:28:35.824Z,47.70
2018-08-20T08:31:04.618Z,47.70
2018-08-20T08:33:33.433Z,48.30
2018-08-20T08:36:02.055Z,47.60
2018-08-20T08:38:30.839Z,47.10
2018-08-20T08:40:59.732Z,47.40
2018-08-20T08:43:28.374Z,46.80
2018-08-20T08:45:57.623Z,46.20
2018-08-20T08:48:26.912Z,46.40
2018-08-20T08:50:55.713Z,46.90
2018-08-20T08:53:24.591Z,47.00
2018-08-20T08:55:53.601Z,46.80
2018-08-20T08:58:23.010Z,46.50
2018-08-20T09:00:51.676Z,46.90
2018-08-20T09:03:20.428Z,47.10
2018-08-20T09:05:49.161Z,46.50
2018-08-20T09:08:18.073Z,46.20
2018-08-20T09:10:47.044Z,45.40
2018-08-20T09:13:16.051Z,45.40
2018-08-20T09:15:44.825Z,45.40
2018-08-20T09:18:14.323Z,45.70
2018-08-20T09:20:43.240Z,45.90
2018-08-20T09:23:12.176Z,46.20
2018-08-20T09:25:40.910Z,46.40
2018-08-20T09:28:09.679Z,46.00
2018-08-20T09:30:38.343Z,45.80
2018-08-20T09:33:07.406Z,46.00
2018-08-20T09:35:36.780Z,46.50
2018-08-20T09:38:05.521Z,46.30
2018-08-20T09:40:34.169Z,46.50
2018-08-20T09:43:03.206Z,46.50
2018-08-20T09:45:31.956Z,47.00
2018-08-20T09:48:00.663Z,46.40
2018-08-20T09:50:29.300Z,46.50
2018-08-20T09:52:57.883Z,46.40
2018-08-20T09:55:27.104Z,46.60
2018-08-20T09:57:55.731Z,46.90
2018-08-20T10:00:29.758Z,47.00
2018-08-20T10:02:58.449Z,46.60
2018-08-20T10:05:27.157Z,46.90
2018-08-20T10:07:55.862Z,46.80
2018-08-20T10:10:24.484Z,46.60
2018-08-20T10:12:53.088Z,47.10
2018-08-20T10:15:21.977Z,47.20
2018-08-20T10:17:50.588Z,47.00
2018-08-20T10:20:19.249Z,47.00
2018-08-20T10:22:48.164Z,47.00
2018-08-20T10:25:16.915Z,46.90
2018-08-20T10:27:45.808Z,46.90
2018-08-20T10:30:17.429Z,46.50
2018-08-20T10:32:46.204Z,46.40
2018-08-20T10:35:14.849Z,46.80
2018-08-20T10:37:43.598Z,46.30
2018-08-20T10:40:12.303Z,46.20
2018-08-20T10:42:40.947Z,46.60
2018-08-20T10:45:17.562Z,46.00
2018-08-20T10:47:48.267Z,45.50
2018-08-20T10:50:19.304Z,45.90
2018-08-20T10:52:49.926Z,46.00
2018-08-20T10:55:18.583Z,46.20
2018-08-20T10:57:47.357Z,46.40
2018-08-20T11:00:16.576Z,46.20
2018-08-20T11:02:45.821Z,46.40
2018-08-20T11:05:17.135Z,46.50
2018-08-20T11:07:46.252Z,45.70
2018-08-20T11:10:15.108Z,45.30
2018-08-20T11:12:43.832Z,45.40
2018-08-20T11:15:12.766Z,46.00
2018-08-20T11:17:41.411Z,46.20
2018-08-20T11:20:12.806Z,45.60
2018-08-20T11:22:41.838Z,46.10
2018-08-20T11:25:11.464Z,46.10
2018-08-20T11:27:40.400Z,45.80
2018-08-20T11:30:12.087Z,46.20
2018-08-20T11:32:41.002Z,45.30
2018-08-20T11:35:10.533Z,45.10
2018-08-20T11:37:39.581Z,46.30
2018-08-20T11:40:09.205Z,45.80
2018-08-20T11:42:37.873Z,46.50
2018-08-20T11:45:09.238Z,45.90
2018-08-20T11:47:38.234Z,44.10
2018-08-20T11:50:07.129Z,44.00
2018-08-20T11:52:35.984Z,43.90
2018-08-20T11:55:05.162Z,44.70
2018-08-20T11:57:34.024Z,44.80
2018-08-20T12:00:02.969Z,44.60
2018-08-20T12:02:32.059Z,44.80
2018-08-20T12:05:00.668Z,44.60
2018-08-20T12:07:29.362Z,44.30
2018-08-20T12:09:58.110Z,44.20
2018-08-20T12:12:26.936Z,43.40
2018-08-20T12:14:55.809Z,43.90
2018-08-20T12:17:29.920Z,44.20
2018-08-20T12:19:58.749Z,43.70
2018-08-20T12:22:27.430Z,43.80
2018-08-20T12:24:56.202Z,43.70
2018-08-20T12:27:24.967Z,44.00
2018-08-20T12:29:53.550Z,43.60
2018-08-20T12:32:22.222Z,43.70
2018-08-20T12:34:50.969Z,43.40
2018-08-20T12:37:19.696Z,43.30
2018-08-20T12:39:48.296Z,43.50
2018-08-20T12:42:17.170Z,42.40
2018-08-20T12:44:45.768Z,42.40
2018-08-20T12:47:14.444Z,42.70
2018-08-20T12:49:43.147Z,42.80
2018-08-20T12:52:11.877Z,43.10
2018-08-20T12:54:40.503Z,43.70
2018-08-20T12:57:09.814Z,43.30
2018-08-20T12:59:38.428Z,43.30
2018-08-20T13:02:07.191Z,43.70
2018-08-20T13:04:35.982Z,43.60
2018-08-20T13:07:04.820Z,44.40
2018-08-20T13:09:33.446Z,43.00
2018-08-20T13:12:02.090Z,43.40
2018-08-20T13:14:30.647Z,43.20
2018-08-20T13:16:59.566Z,43.50
2018-08-20T13:19:28.304Z,43.60
2018-08-20T13:21:57.362Z,43.90
2018-08-20T13:24:26.088Z,43.70
2018-08-20T13:26:58.826Z,43.80
2018-08-20T13:29:27.711Z,44.10
2018-08-20T13:31:56.476Z,43.90
2018-08-20T13:34:25.119Z,44.20
2018-08-20T13:36:53.741Z,43.80
2018-08-20T13:39:23.339Z,43.10
2018-08-20T13:41:52.093Z,42.70
2018-08-20T13:44:20.755Z,42.80
2018-08-20T13:46:49.358Z,42.80
2018-08-20T13:49:18.252Z,42.50
2018-08-20T13:51:46.867Z,42.50
2018-08-20T13:54:15.572Z,43.00
2018-08-20T13:56:44.427Z,43.30
2018-08-20T13:59:13.055Z,42.20
2018-08-20T14:01:42.161Z,42.60
2018-08-20T14:04:14.068Z,41.80
2018-08-20T14:06:43.210Z,42.00
2018-08-20T14:09:12.455Z,42.50
2018-08-20T14:11:41.136Z,42.30
2018-08-20T14:14:09.853Z,42.80
2018-08-20T14:16:38.685Z,41.60
2018-08-20T14:19:07.379Z,42.30
2018-08-20T14:21:36.059Z,42.50
2018-08-20T14:24:04.743Z,42.90
2018-08-20T14:26:33.664Z,41.10
2018-08-20T14:29:02.672Z,42.30
2018-08-20T14:31:31.380Z,42.50
2018-08-20T14:34:00.931Z,42.80
2018-08-20T14:36:29.635Z,41.00
2018-08-20T14:38:58.660Z,40.20
2018-08-20T14:41:28.084Z,41.00
2018-08-20T14:43:56.764Z,40.50
2018-08-20T14:46:25.495Z,42.20
2018-08-20T14:48:54.316Z,42.50
2018-08-20T14:51:22.991Z,42.60
2018-08-20T14:53:52.301Z,41.80
2018-08-20T14:56:21.010Z,41.40
2018-08-20T14:58:54.668Z,40.90
2018-08-20T15:01:24.516Z,41.00
2018-08-20T15:03:53.248Z,40.30
2018-08-20T15:06:21.900Z,41.10
2018-08-20T15:08:50.616Z,40.70
2018-08-20T15:11:20.312Z,40.70
2018-08-20T15:13:48.877Z,41.20
2018-08-20T15:16:18.375Z,41.60
2018-08-20T15:18:47.325Z,41.60
2018-08-20T15:21:16.062Z,42.10
2018-08-20T15:23:44.819Z,41.50
2018-08-20T15:26:13.518Z,41.70
2018-08-20T15:28:42.158Z,41.80
2018-08-20T15:31:11.268Z,41.80
2018-08-20T15:33:39.916Z,42.40
2018-08-20T15:36:08.766Z,42.50
2018-08-20T15:38:37.788Z,42.30
2018-08-20T15:41:06.431Z,41.30
2018-08-20T15:43:35.355Z,41.70
2018-08-20T15:46:04.240Z,42.00
2018-08-20T15:48:33.658Z,41.40
2018-08-20T15:51:02.802Z,41.30
2018-08-20T15:53:31.836Z,42.00
2018-08-20T15:56:00.516Z,41.70
2018-08-20T15:58:29.223Z,42.10
2018-08-20T16:00:57.919Z,42.70
2018-08-20T16:03:26.585Z,42.50
2018-08-20T16:05:55.284Z,42.90
2018-08-20T16:08:23.924Z,42.30
2018-08-20T16:10:52.686Z,42.60
2018-08-20T16:13:21.280Z,42.70
2018-08-20T16:15:49.905Z,42.50
2018-08-20T16:18:18.469Z,43.00
2018-08-20T16:20:47.154Z,43.40
2018-08-20T16:23:15.761Z,43.30
2018-08-20T16:25:44.428Z,44.10
2018-08-20T16:28:12.997Z,43.60
2018-08-20T16:30:42.002Z,43.50
2018-08-20T16:33:10.702Z,43.60
2018-08-20T16:35:39.616Z,44.40
2018-08-20T16:38:08.283Z,44.60
2018-08-20T16:40:38.282Z,44.70
2018-08-20T16:43:07.690Z,44.00
2018-08-20T16:45:36.438Z,44.30
2018-08-20T16:48:05.593Z,44.40
2018-08-20T16:50:34.360Z,44.20
2018-08-20T16:53:03.132Z,44.00
2018-08-20T16:55:31.790Z,43.80
2018-08-20T16:58:00.612Z,43.80
2018-08-20T17:00:29.544Z,43.90
2018-08-20T17:02:58.307Z,44.30
2018-08-20T17:05:28.730Z,45.20
2018-08-20T17:07:57.383Z,45.40
2018-08-20T17:10:25.998Z,44.70
2018-08-20T17:12:54.613Z,45.30
2018-08-20T17:15:23.163Z,45.30
2018-08-20T17:17:51.831Z,44.70
2018-08-20T17:20:20.604Z,45.40
2018-08-20T17:22:49.499Z,45.00
2018-08-20T17:25:18.093Z,45.00
2018-08-20T17:27:52.544Z,45.30
2018-08-20T17:30:22.660Z,45.70
2018-08-20T17:32:51.420Z,46.40
2018-08-20T17:35:20.126Z,46.40
2018-08-20T17:37:50.004Z,46.80
2018-08-20T17:40:18.597Z,46.80
2018-08-20T17:42:47.464Z,46.60
2018-08-20T17:45:16.071Z,46.80
2018-08-20T17:47:44.907Z,46.70
2018-08-20T17:50:29.252Z,46.60
2018-08-20T17:52:59.696Z,46.50
2018-08-20T17:55:28.336Z,46.70
2018-08-20T17:57:57.761Z,46.70
2018-08-20T18:00:30.759Z,46.60
2018-08-20T18:02:59.456Z,46.70
2018-08-20T18:05:28.296Z,46.70
2018-08-20T18:08:19.995Z,47.00
2018-08-20T18:10:59.696Z,47.30
2018-08-20T18:13:50.096Z,47.20
2018-08-20T18:16:20.232Z,47.60
2018-08-20T18:18:50.894Z,47.50
2018-08-20T18:21:19.936Z,48.10
2018-08-20T18:23:48.797Z,48.30
2018-08-20T18:26:17.491Z,48.30
2018-08-20T18:28:52.778Z,48.60
2018-08-20T18:31:24.946Z,48.70
2018-08-20T18:33:54.103Z,49.00
2018-08-20T18:36:27.370Z,49.00
2018-08-20T18:39:00.279Z,49.50
2018-08-20T18:41:51.269Z,49.40
2018-08-20T18:44:21.260Z,49.30
2018-08-20T18:46:50.512Z,49.50
2018-08-20T18:49:19.945Z,50.10
2018-08-20T18:51:59.995Z,49.90
2018-08-20T18:54:28.785Z,49.90
2018-08-20T18:57:02.525Z,49.90
2018-08-20T18:59:32.710Z,49.90
2018-08-20T19:02:01.448Z,50.70
2018-08-20T19:04:35.995Z,50.00
2018-08-20T19:07:08.984Z,50.10
2018-08-20T19:09:38.569Z,50.20
2018-08-20T19:12:07.480Z,50.20
2018-08-20T19:14:36.247Z,50.10
2018-08-20T19:17:13.177Z,50.80
2018-08-20T19:19:50.109Z,50.30
2018-08-20T19:22:23.999Z,50.60
2018-08-20T19:24:52.699Z,50.60
2018-08-20T19:27:21.309Z,50.80
2018-08-20T19:29:50.166Z,51.10
2018-08-20T19:32:18.807Z,51.40
2018-08-20T19:34:47.497Z,51.60
2018-08-20T19:37:16.144Z,51.70
2018-08-20T19:39:44.747Z,51.60
2018-08-20T19:42:19.752Z,51.70
2018-08-20T19:44:48.303Z,51.70
2018-08-20T19:47:16.871Z,51.90
2018-08-20T19:49:45.725Z,52.00
2018-08-20T19:52:14.399Z,52.10
2018-08-20T19:54:43.321Z,52.30
2018-08-20T19:57:12.551Z,52.30
2018-08-20T19:59:41.174Z,52.40
2018-08-20T20:02:11.462Z,52.40
2018-08-20T20:04:40.189Z,52.70
2018-08-20T20:07:10.378Z,52.70
2018-08-20T20:09:39.603Z,52.70
2018-08-20T20:12:08.648Z,52.80
2018-08-20T20:14:42.995Z,52.80
2018-08-20T20:17:12.077Z,53.00
2018-08-20T20:19:41.193Z,53.10
2018-08-20T20:22:16.080Z,53.10
2018-08-20T20:24:45.021Z,53.10
2018-08-20T20:27:13.742Z,53.20
2018-08-20T20:29:43.294Z,53.30
2018-08-20T20:32:12.648Z,53.50
2018-08-20T20:34:41.440Z,53.50
2018-08-20T20:37:10.182Z,53.60
2018-08-20T20:39:45.134Z,53.70
2018-08-20T20:42:14.806Z,53.80
2018-08-20T20:44:43.576Z,53.90
2018-08-20T20:47:13.018Z,53.80
2018-08-20T20:49:42.043Z,53.90
2018-08-20T20:52:11.395Z,54.10
2018-08-20T20:54:40.022Z,54.10
2018-08-20T20:57:08.969Z,54.40
2018-08-20T20:59:37.898Z,54.60
2018-08-20T21:02:06.861Z,54.80
2018-08-20T21:04:36.874Z,54.90
2018-08-20T21:07:05.641Z,54.90
2018-08-20T21:09:40.042Z,54.90
2018-08-20T21:12:08.830Z,55.00
2018-08-20T21:14:37.411Z,54.90
2018-08-20T21:17:06.032Z,55.00
2018-08-20T21:19:35.874Z,55.20
2018-08-20T21:22:06.894Z,55.10
2018-08-20T21:24:35.687Z,55.40
2018-08-20T21:27:08.081Z,55.50
2018-08-20T21:29:37.631Z,55.70
2018-08-20T21:32:06.425Z,55.70
2018-08-20T21:34:39.309Z,55.70
2018-08-20T21:37:08.007Z,55.90
2018-08-20T21:39:36.919Z,56.10
2018-08-20T21:42:05.708Z,56.00
2018-08-20T21:44:34.715Z,56.20
2018-08-20T21:47:14.374Z,56.30
2018-08-20T21:49:43.244Z,56.30
2018-08-20T21:52:13.051Z,56.60
2018-08-20T21:54:41.602Z,56.90
2018-08-20T21:57:10.452Z,57.10
2018-08-20T21:59:40.303Z,57.00
2018-08-20T22:02:08.992Z,56.90
2018-08-20T22:04:37.791Z,56.90
2018-08-20T22:07:06.341Z,56.90
2018-08-20T22:09:35.207Z,56.90
2018-08-20T22:12:04.199Z,56.90
2018-08-20T22:14:32.946Z,57.10
2018-08-20T22:19:44.628Z,57.20
2018-08-20T22:22:13.310Z,57.40
2018-08-20T22:24:43.818Z,57.40
2018-08-20T22:27:12.827Z,57.30
2018-08-20T22:29:46.549Z,57.30
2018-08-20T22:32:15.251Z,57.50
2018-08-20T22:34:43.887Z,57.40
2018-08-20T22:37:12.828Z,57.40
2018-08-20T22:39:42.008Z,57.50
2018-08-20T22:42:10.772Z,57.50
2018-08-20T22:44:39.825Z,57.40
2018-08-20T22:47:08.361Z,57.50
2018-08-20T22:49:36.886Z,57.60
2018-08-20T22:52:07.599Z,57.70
2018-08-20T22:54:36.451Z,57.90
2018-08-20T22:57:05.291Z,58.00
2018-08-20T22:59:33.874Z,58.10
2018-08-20T23:02:02.470Z,58.10
2018-08-20T23:04:31.542Z,58.10
2018-08-20T23:07:04.889Z,58.10
2018-08-20T23:09:33.860Z,58.10
2018-08-20T23:12:02.822Z,58.10
2018-08-20T23:14:34.346Z,58.10
2018-08-20T23:17:03.186Z,58.30
2018-08-20T23:19:31.862Z,58.30
2018-08-20T23:22:00.495Z,58.40
2018-08-20T23:24:29.083Z,58.60
2018-08-20T23:26:57.647Z,58.60
2018-08-20T23:29:26.212Z,58.60
2018-08-20T23:31:54.781Z,58.50
2018-08-20T23:34:23.686Z,58.60
2018-08-20T23:36:52.518Z,58.50
2018-08-20T23:39:21.070Z,58.60
2018-08-20T23:41:49.653Z,58.70
2018-08-20T23:44:18.214Z,58.70
2018-08-20T23:46:49.188Z,58.70
2018-08-20T23:49:17.737Z,58.50
2018-08-20T23:51:46.859Z,58.50
2018-08-20T23:54:15.377Z,58.50
2018-08-20T23:56:44.043Z,58.60
2018-08-20T23:59:12.982Z,58.80
